Time;durP1;ratioP1;P1;durP2;ratioP2;P2;SDS_P1;SDS_P2;PMS_P1;PMS_P2;Temp;Humidity;BMP_temperature;BMP_pressure;BME280_temperature;BME280_humidity;BME280_pressure;Samples;Min_cycle;Max_cycle;Signal;HPM_P1;HPM_P2
2024/02/08 00:01:05;;;;;;;22.02;11.77;;;;;;;2.75;100.00;100060.25;5023332;28;20037;-79
2024/02/08 00:03:31;;;;;;;24.80;12.00;;;;;;;2.76;100.00;100061.06;5004193;28;20037;-77
2024/02/08 00:05:56;;;;;;;24.02;12.48;;;;;;;2.77;100.00;100066.06;5006371;28;21308;-79
2024/02/08 00:08:22;;;;;;;20.67;11.43;;;;;;;2.77;100.00;100068.63;5000106;28;20543;-79
2024/02/08 00:10:47;;;;;;;24.58;12.00;;;;;;;2.78;100.00;100069.44;5022874;28;20062;-79
2024/02/08 00:13:13;;;;;;;26.33;12.18;;;;;;;2.78;100.00;100062.53;5000369;28;20599;-79
2024/02/08 00:15:39;;;;;;;21.85;11.82;;;;;;;2.80;100.00;100060.69;5023847;28;20029;-78
2024/02/08 00:18:05;;;;;;;24.42;11.98;;;;;;;2.82;100.00;100068.25;5002985;28;20029;-79
2024/02/08 00:20:31;;;;;;;26.80;12.60;;;;;;;2.82;100.00;100070.78;5022857;28;20078;-79
2024/02/08 00:22:57;;;;;;;27.98;13.63;;;;;;;2.83;100.00;100068.13;5023643;28;20031;-79
2024/02/08 00:25:23;;;;;;;28.58;15.05;;;;;;;2.82;100.00;100060.56;5021995;28;20045;-78
2024/02/08 00:27:49;;;;;;;28.27;13.50;;;;;;;2.83;100.00;100047.63;5023248;28;20025;-79
2024/02/08 00:30:17;;;;;;;32.80;16.65;;;;;;;2.84;100.00;100043.31;5023129;28;20504;-79
2024/02/08 00:32:46;;;;;;;30.33;14.77;;;;;;;2.80;100.00;100032.50;5023894;28;20506;-77
2024/02/08 00:35:17;;;;;;;30.38;15.40;;;;;;;2.81;100.00;100044.38;5020703;28;20399;-78
2024/02/08 00:37:49;;;;;;;37.10;18.52;;;;;;;2.79;100.00;100035.19;5008453;28;20044;-79
2024/02/08 00:40:15;;;;;;;30.35;15.73;;;;;;;2.78;100.00;100034.38;5009538;28;22044;-79
2024/02/08 00:42:42;;;;;;;32.95;16.75;;;;;;;2.76;100.00;100032.91;5019357;28;20034;-82
2024/02/08 00:45:09;;;;;;;32.38;15.60;;;;;;;2.76;100.00;100038.00;5009570;28;20072;-80
2024/02/08 00:47:34;;;;;;;39.55;17.75;;;;;;;2.75;100.00;100039.78;5008498;28;20033;-80
2024/02/08 00:50:00;;;;;;;30.75;16.63;;;;;;;2.75;100.00;100037.22;5008749;28;20664;-80
2024/02/08 00:52:25;;;;;;;30.23;16.75;;;;;;;2.75;100.00;100036.38;5008468;28;20367;-80
2024/02/08 00:54:51;;;;;;;40.63;19.42;;;;;;;2.75;100.00;100031.25;5026210;28;20041;-80
2024/02/08 00:57:16;;;;;;;30.60;16.23;;;;;;;2.75;100.00;100031.25;5014720;28;20037;-79
2024/02/08 00:59:42;;;;;;;37.78;17.35;;;;;;;2.72;100.00;100033.13;5028137;28;20037;-80
2024/02/08 01:02:09;;;;;;;31.23;16.77;;;;;;;2.72;100.00;100042.56;5030077;28;20033;-82
2024/02/08 01:04:34;;;;;;;39.08;16.65;;;;;;;2.72;100.00;100035.69;5012202;28;20120;-80
2024/02/08 01:07:00;;;;;;;34.65;16.95;;;;;;;2.72;100.00;100040.00;5003272;28;20121;-79
2024/02/08 01:09:26;;;;;;;37.33;18.55;;;;;;;2.73;100.00;100036.50;5011757;28;20344;-80
2024/02/08 01:11:51;;;;;;;36.85;17.60;;;;;;;2.71;100.00;100035.81;5005967;28;20035;-79
2024/02/08 01:14:21;;;;;;;32.80;16.27;;;;;;;2.73;100.00;100041.63;5026302;28;20037;-80
2024/02/08 01:16:50;;;;;;;30.13;16.38;;;;;;;2.73;100.00;100050.13;5027856;28;20487;-80
2024/02/08 01:19:25;;;;;;;29.13;16.92;;;;;;;2.75;100.00;100038.94;5028575;28;20041;-80
2024/02/08 01:21:56;;;;;;;37.30;17.50;;;;;;;2.73;100.00;100044.16;5012021;28;20037;-79
2024/02/08 01:24:22;;;;;;;35.05;16.17;;;;;;;2.73;100.00;100050.13;5010329;28;20102;-80
2024/02/08 01:26:51;;;;;;;35.08;17.50;;;;;;;2.76;100.00;100049.06;5028406;28;20048;-79
2024/02/08 01:29:18;;;;;;;39.17;18.15;;;;;;;2.78;100.00;100049.75;5028163;28;20029;-80
2024/02/08 01:31:43;;;;;;;40.38;19.23;;;;;;;2.78;100.00;100042.06;5027545;28;20029;-80
2024/02/08 01:34:10;;;;;;;33.65;16.80;;;;;;;2.77;100.00;100050.69;5025047;28;20037;-79
2024/02/08 01:36:37;;;;;;;36.60;18.70;;;;;;;2.80;100.00;100058.13;5010043;28;20405;-82
2024/02/08 01:39:13;;;;;;;37.22;18.73;;;;;;;2.82;100.00;100056.25;5023392;28;20164;-82
2024/02/08 01:41:42;;;;;;;39.65;19.55;;;;;;;2.86;100.00;100056.81;5027671;28;20099;-80
2024/02/08 01:44:09;;;;;;;40.58;21.25;;;;;;;2.86;100.00;100061.94;5011202;28;20102;-80
2024/02/08 01:46:38;;;;;;;50.50;23.38;;;;;;;2.85;100.00;100065.44;5029393;28;20040;-80
2024/02/08 01:49:23;;;;;;;45.92;21.73;;;;;;;2.84;100.00;100066.38;5029674;28;20030;-79
2024/02/08 01:51:50;;;;;;;44.97;21.77;;;;;;;2.84;100.00;100066.38;5010566;28;20574;-80
2024/02/08 01:54:19;;;;;;;44.63;21.35;;;;;;;2.84;100.00;100061.25;5028645;28;20098;-79
2024/02/08 01:56:44;;;;;;;38.90;20.08;;;;;;;2.85;100.00;100063.69;5007885;28;20065;-80
2024/02/08 01:59:11;;;;;;;45.03;20.90;;;;;;;2.85;100.00;100057.75;5026275;28;20087;-78
2024/02/08 02:01:45;;;;;;;44.63;22.10;;;;;;;2.86;100.00;100049.13;5015503;28;20461;-80
2024/02/08 02:04:15;;;;;;;42.97;20.58;;;;;;;2.86;100.00;100034.59;5010622;28;20112;-80
2024/02/08 02:06:43;;;;;;;45.42;22.48;;;;;;;2.89;100.00;100038.63;5027140;28;20034;-80
2024/02/08 02:09:11;;;;;;;39.55;20.80;;;;;;;2.88;100.00;100037.84;5021232;28;20037;-80
2024/02/08 02:11:45;;;;;;;49.25;21.38;;;;;;;2.86;100.00;100028.63;5015455;28;20099;-80
2024/02/08 02:14:15;;;;;;;53.35;24.55;;;;;;;2.83;100.00;100032.28;5027837;28;20033;-80
2024/02/08 02:16:41;;;;;;;46.83;22.40;;;;;;;2.82;100.00;100030.63;5026051;28;20052;-80
2024/02/08 02:19:08;;;;;;;47.33;24.20;;;;;;;2.85;100.00;100034.72;5026578;28;20116;-79
2024/02/08 02:21:34;;;;;;;45.35;23.17;;;;;;;2.86;100.00;100028.63;5024597;28;20620;-80
2024/02/08 02:24:00;;;;;;;46.17;24.00;;;;;;;2.84;100.00;100026.19;5014900;28;20681;-80
2024/02/08 02:26:27;;;;;;;50.03;24.85;;;;;;;2.87;100.00;100023.41;5027180;28;20129;-80
2024/02/08 02:28:54;;;;;;;53.10;26.33;;;;;;;2.86;100.00;100026.06;5025994;28;20033;-80
2024/02/08 02:31:23;;;;;;;49.72;24.98;;;;;;;2.84;100.00;100018.50;5003580;28;20029;-80
2024/02/08 02:33:50;;;;;;;59.97;26.08;;;;;;;2.84;100.00;100015.94;5010252;28;20033;-79
2024/02/08 02:36:17;;;;;;;55.22;26.63;;;;;;;2.82;100.00;100017.81;5027831;28;20447;-80
2024/02/08 02:38:44;;;;;;;51.50;25.50;;;;;;;2.82;100.00;100028.06;5028040;28;20044;-80
2024/02/08 02:41:10;;;;;;;45.17;23.77;;;;;;;2.84;100.00;100028.75;5026740;28;20044;-80
2024/02/08 02:43:37;;;;;;;53.72;26.42;;;;;;;2.86;100.00;100024.34;5008077;28;20033;-80
2024/02/08 02:46:05;;;;;;;54.95;26.70;;;;;;;2.87;100.00;100018.28;5008682;28;20030;-80
2024/02/08 02:48:32;;;;;;;62.72;27.98;;;;;;;2.80;100.00;100014.59;5012704;28;20025;-79
2024/02/08 02:50:58;;;;;;;57.78;25.98;;;;;;;2.81;100.00;100005.16;5007906;28;20172;-80
2024/02/08 02:53:24;;;;;;;57.78;25.80;;;;;;;2.81;100.00;100005.16;5017965;28;20615;-80
2024/02/08 02:55:50;;;;;;;62.47;24.85;;;;;;;2.82;100.00;99993.97;5023952;28;20092;-80
2024/02/08 02:58:15;;;;;;;56.28;25.17;;;;;;;2.83;100.00;99991.28;5012980;28;20029;-80
2024/02/08 03:00:41;;;;;;;52.90;25.50;;;;;;;2.83;100.00;99988.72;5010114;28;20038;-80
2024/02/08 03:03:12;;;;;;;57.70;27.73;;;;;;;2.85;100.00;99997.09;5007684;28;20030;-80
2024/02/08 03:05:44;;;;;;;59.92;25.73;;;;;;;2.86;100.00;99991.06;5011175;28;20507;-80
2024/02/08 03:08:11;;;;;;;62.75;28.75;;;;;;;2.85;100.00;99994.53;5026044;28;20552;-80
2024/02/08 03:10:37;;;;;;;60.10;25.50;;;;;;;2.85;100.00;99986.06;5010461;28;20045;-80
2024/02/08 03:13:03;;;;;;;70.50;29.70;;;;;;;2.90;100.00;99981.34;5003802;28;20021;-80
2024/02/08 03:15:29;;;;;;;58.80;26.75;;;;;;;2.83;100.00;99975.13;5012255;28;20307;-80
2024/02/08 03:17:54;;;;;;;58.17;27.80;;;;;;;2.83;100.00;99973.38;5024805;28;20029;-80
2024/02/08 03:20:29;;;;;;;56.35;26.75;;;;;;;2.82;100.00;99976.06;5021951;28;20041;-80
2024/02/08 03:22:56;;;;;;;62.53;27.38;;;;;;;2.83;100.00;99970.81;5007197;28;20036;-79
2024/02/08 03:25:22;;;;;;;66.03;27.92;;;;;;;2.83;100.00;99958.00;5005536;28;20034;-80
2024/02/08 03:27:54;;;;;;;63.47;27.90;;;;;;;2.83;100.00;99959.75;5023210;28;20462;-80
2024/02/08 03:30:30;;;;;;;59.45;26.95;;;;;;;2.83;100.00;99972.56;5024944;28;20037;-80
2024/02/08 03:32:57;;;;;;;71.47;32.10;;;;;;;2.84;100.00;99976.72;5004764;28;20465;-80
2024/02/08 03:35:36;;;;;;;65.82;29.40;;;;;;;2.83;100.00;99980.25;5028577;28;20101;-80
2024/02/08 03:38:01;;;;;;;68.45;29.30;;;;;;;2.83;100.00;99978.50;5026644;28;20044;-80
2024/02/08 03:40:31;;;;;;;70.05;30.58;;;;;;;2.80;100.00;99975.38;5012934;28;20045;-80
2024/02/08 03:42:56;;;;;;;67.80;29.23;;;;;;;2.79;100.00;99987.38;5026716;28;20041;-80
2024/02/08 03:45:27;;;;;;;76.85;30.85;;;;;;;2.79;100.00;99983.97;5022364;28;20052;-80
2024/02/08 03:48:04;;;;;;;77.25;31.45;;;;;;;2.78;100.00;99980.59;5004887;28;20053;-80
2024/02/08 03:50:33;;;;;;;79.47;32.05;;;;;;;2.79;100.00;99972.00;5012063;28;20037;-80
2024/02/08 03:53:02;;;;;;;70.63;29.92;;;;;;;2.79;100.00;99968.59;5006158;28;20029;-80
2024/02/08 03:55:28;;;;;;;69.93;29.98;;;;;;;2.82;100.00;99960.69;5017804;28;20044;-80
2024/02/08 03:57:56;;;;;;;61.80;27.23;;;;;;;2.80;100.00;99968.50;5018873;28;20030;-79
2024/02/08 04:00:30;;;;;;;73.88;30.38;;;;;;;2.81;100.00;99965.00;5019368;28;20041;-80
2024/02/08 04:03:10;;;;;;;73.20;29.15;;;;;;;2.83;100.00;99975.13;5012793;28;20475;-80
2024/02/08 04:05:37;;;;;;;75.53;28.20;;;;;;;2.84;100.00;99982.66;5041421;28;20049;-80
2024/02/08 04:54:37;;;;;;;76.10;30.55;;;;;;;2.91;100.00;99950.50;5024945;28;20048;-81
2024/02/08 04:57:03;;;;;;;68.57;29.58;;;;;;;2.88;100.00;99952.50;5013259;28;20049;-80
2024/02/08 04:59:29;;;;;;;70.90;27.92;;;;;;;2.88;100.00;99940.53;5027993;28;20065;-80
2024/02/08 05:01:55;;;;;;;77.97;30.80;;;;;;;2.86;100.00;99942.41;5013634;28;20033;-79
2024/02/08 05:04:23;;;;;;;79.40;31.25;;;;;;;2.87;100.00;99936.31;5029771;28;20111;-80
2024/02/08 05:06:53;;;;;;;69.07;29.60;;;;;;;2.88;100.00;99942.25;5026070;28;20061;-81
2024/02/08 05:09:21;;;;;;;74.93;29.00;;;;;;;2.87;100.00;99943.19;5015082;28;20060;-80
2024/02/08 05:11:48;;;;;;;79.10;30.40;;;;;;;2.88;100.00;99940.53;5009884;28;20049;-81
2024/02/08 05:14:15;;;;;;;71.78;28.65;;;;;;;2.86;100.00;99934.72;5013148;28;20036;-80
2024/02/08 05:16:40;;;;;;;68.60;27.90;;;;;;;2.86;100.00;99931.31;5011822;28;20033;-80
2024/02/08 05:19:09;;;;;;;78.70;29.95;;;;;;;2.91;100.00;99922.31;5031214;28;20408;-80
2024/02/08 05:21:39;;;;;;;72.28;29.75;;;;;;;2.90;100.00;99932.69;5026008;28;20041;-80
2024/02/08 05:24:05;;;;;;;68.97;28.35;;;;;;;2.89;100.00;99937.00;5013538;28;20029;-80
2024/02/08 05:26:31;;;;;;;61.03;27.35;;;;;;;2.89;100.00;99933.63;5015270;28;20507;-81
2024/02/08 05:28:57;;;;;;;74.30;28.30;;;;;;;2.90;100.00;99925.84;5027489;28;20033;-80
2024/02/08 05:31:27;;;;;;;68.20;29.67;;;;;;;2.92;100.00;99925.72;5012319;28;20133;-80
2024/02/08 05:33:56;;;;;;;66.10;26.52;;;;;;;2.91;100.00;99913.84;5003971;28;20108;-81
2024/02/08 05:36:23;;;;;;;72.55;29.58;;;;;;;2.91;100.00;99908.72;5029439;28;20072;-81
2024/02/08 05:38:52;;;;;;;75.80;30.35;;;;;;;2.92;100.00;99910.34;5013519;28;20132;-81
2024/02/08 05:41:18;;;;;;;64.47;26.05;;;;;;;2.91;100.00;99908.72;5004682;28;20034;-80
2024/02/08 05:43:47;;;;;;;66.97;29.45;;;;;;;2.90;100.00;99907.91;5029498;28;20030;-80
2024/02/08 05:46:19;;;;;;;69.28;28.95;;;;;;;2.91;100.00;99911.28;5029717;28;20042;-80
2024/02/08 05:48:51;;;;;;;63.20;27.08;;;;;;;2.91;100.00;99906.97;5028325;28;20025;-81
2024/02/08 05:51:20;;;;;;;69.07;27.38;;;;;;;2.93;100.00;99897.38;5012260;28;20455;-80
2024/02/08 05:53:51;;;;;;;70.32;28.25;;;;;;;2.95;100.00;99891.34;5025432;28;20607;-81
2024/02/08 05:56:25;;;;;;;77.07;27.17;;;;;;;2.95;100.00;99899.81;5027050;28;20052;-81
2024/02/08 05:58:53;;;;;;;67.05;28.38;;;;;;;2.97;100.00;99892.03;5025851;28;20505;-80
2024/02/08 06:01:23;;;;;;;73.10;29.55;;;;;;;2.97;100.00;99887.69;5011720;28;20034;-81
2024/02/08 06:03:50;;;;;;;75.60;28.63;;;;;;;2.93;100.00;99876.91;5016420;28;20025;-80
2024/02/08 06:06:33;;;;;;;66.32;27.88;;;;;;;2.92;100.00;99884.75;5028238;28;20116;-80
2024/02/08 06:09:33;;;;;;;70.07;27.40;;;;;;;2.92;100.00;99897.53;5023979;28;20021;-79
2024/02/08 06:12:08;;;;;;;73.85;27.42;;;;;;;2.93;100.00;99897.38;5027371;28;20240;-81
2024/02/08 06:14:39;;;;;;;70.47;27.65;;;;;;;2.95;100.00;99894.72;5012968;28;20128;-81
2024/02/08 06:17:08;;;;;;;84.15;27.38;;;;;;;2.89;100.00;99892.66;5011627;28;20044;-80
2024/02/08 06:19:50;;;;;;;62.20;26.05;;;;;;;2.90;100.00;99889.97;5011453;28;20400;-80
2024/02/08 06:22:25;;;;;;;73.25;26.85;;;;;;;2.92;100.00;99882.97;5011966;28;20408;-80
2024/02/08 06:25:08;;;;;;;75.45;27.83;;;;;;;2.91;100.00;99886.47;5009665;28;20123;-81
2024/02/08 06:27:37;;;;;;;84.43;28.48;;;;;;;2.90;100.00;99884.88;5005610;28;20037;-79
2024/02/08 06:30:08;;;;;;;78.85;28.67;;;;;;;2.92;100.00;99879.63;5009898;28;21682;-81
2024/02/08 06:32:34;;;;;;;81.45;28.13;;;;;;;2.91;100.00;99873.66;5003952;28;20029;-79
2024/02/08 06:35:07;;;;;;;75.32;29.55;;;;;;;2.92;100.00;99867.63;5012858;28;20048;-79
2024/02/08 06:37:42;;;;;;;73.22;26.15;;;;;;;2.91;100.00;99871.09;5009589;28;20030;-80
2024/02/08 06:40:17;;;;;;;79.35;28.45;;;;;;;2.94;100.00;99867.50;5026845;28;20060;-80
2024/02/08 06:43:25;;;;;;;82.43;28.15;;;;;;;2.97;100.00;99866.41;5027837;28;20029;-81
2024/02/08 07:37:25;;;;;;;109.70;39.78;;;;;;;2.95;100.00;99840.91;5020651;28;20150;-79
2024/02/08 07:40:18;;;;;;;79.32;31.35;;;;;;;3.01;100.00;99842.16;5010718;28;20041;-79
2024/02/08 07:42:43;;;;;;;71.75;26.13;;;;;;;3.02;100.00;99836.91;5024732;28;20034;-79
2024/02/08 07:45:12;;;;;;;65.05;25.75;;;;;;;3.02;100.00;99831.78;5024017;28;20046;-79
2024/02/08 07:47:57;;;;;;;64.65;26.48;;;;;;;3.02;100.00;99836.91;5023051;28;20049;-79
2024/02/08 07:50:24;;;;;;;57.67;24.67;;;;;;;3.00;100.00;99825.97;5009047;28;20519;-78
2024/02/08 07:52:58;;;;;;;67.72;24.05;;;;;;;3.04;100.00;99839.34;5009738;28;20033;-79
2024/02/08 07:57:58;;;;;;;56.53;23.53;;;;;;;3.08;100.00;99835.56;5038346;28;20054;-80
2024/02/08 08:03:09;;;;;;;50.22;20.45;;;;;;;3.14;100.00;99835.03;5020583;28;20097;-79
2024/02/08 08:05:41;;;;;;;50.17;20.92;;;;;;;3.15;100.00;99820.50;5026289;28;20033;-80
2024/02/08 08:08:15;;;;;;;54.58;20.40;;;;;;;3.29;100.00;99823.47;5013644;28;20033;-79
2024/02/08 08:10:41;;;;;;;46.75;18.75;;;;;;;3.27;100.00;99812.53;5019543;28;20037;-79
2024/02/08 08:13:07;;;;;;;43.60;18.48;;;;;;;3.24;100.00;99807.69;5030086;28;20038;-79
2024/02/08 08:15:49;;;;;;;40.25;17.58;;;;;;;3.28;100.00;99801.38;5030004;28;20042;-79
2024/02/08 08:18:23;;;;;;;39.85;16.08;;;;;;;3.26;100.00;99790.44;5027684;28;20029;-78
2024/02/08 08:20:56;;;;;;;36.33;15.40;;;;;;;3.33;100.00;99785.56;5024579;28;20040;-80
2024/02/08 08:23:25;;;;;;;;;;;;;;;3.36;100.00;99774.28;5026152;28;20037;-80
2024/02/08 08:26:05;;;;;;;31.63;13.55;;;;;;;3.35;100.00;99770.06;5029416;28;20307;-79
2024/02/08 08:28:39;;;;;;;32.42;13.73;;;;;;;3.38;100.00;99775.75;5030029;28;20033;-80
2024/02/08 08:33:58;;;;;;;23.95;11.13;;;;;;;3.39;100.00;99754.31;5044259;28;20037;-80
2024/02/08 08:36:30;;;;;;;27.80;11.13;;;;;;;3.43;100.00;99749.72;5011595;28;20615;-82
2024/02/08 08:41:47;;;;;;;21.25;10.88;;;;;;;3.44;100.00;99748.75;5024325;28;20038;-80
2024/02/08 08:44:18;;;;;;;24.40;10.43;;;;;;;3.49;100.00;99734.59;5012063;28;20022;-81
2024/02/08 08:46:44;;;;;;;23.23;11.48;;;;;;;3.56;100.00;99739.16;5029513;28;20045;-80
2024/02/08 08:49:14;;;;;;;27.67;11.68;;;;;;;3.58;100.00;99734.72;5005077;28;20079;-81
2024/02/08 08:51:42;;;;;;;22.70;10.07;;;;;;;3.49;100.00;99729.47;5007780;28;20099;-80
2024/02/08 08:54:19;;;;;;;23.25;11.77;;;;;;;3.57;100.00;99723.66;5007757;28;21650;-80
2024/02/08 08:56:49;;;;;;;26.30;11.25;;;;;;;3.59;100.00;99729.44;5026647;28;20121;-80
2024/02/08 08:59:19;;;;;;;22.15;10.60;;;;;;;3.61;100.00;99727.56;5028607;28;20045;-80
2024/02/08 09:01:45;;;;;;;24.55;11.55;;;;;;;3.65;100.00;99717.84;5026721;28;20029;-81
2024/02/08 09:04:25;;;;;;;23.10;10.98;;;;;;;3.65;100.00;99715.28;5020188;28;20029;-81
2024/02/08 09:06:53;;;;;;;23.48;10.98;;;;;;;3.52;100.00;99710.44;5023960;28;20033;-80
2024/02/08 09:09:54;;;;;;;20.85;9.63;;;;;;;3.53;100.00;99706.94;5030433;28;20079;-81
2024/02/08 09:12:14;;;;;;;20.58;10.02;;;;;;;3.53;100.00;99704.38;5029197;28;20069;-81
2024/02/08 09:14:53;;;;;;;20.95;10.57;;;;;;;3.48;100.00;99694.53;5011580;28;20079;-80
2024/02/08 09:17:25;;;;;;;28.67;11.48;;;;;;;3.59;100.00;99691.00;5012736;28;20045;-80
2024/02/08 09:19:59;;;;;;;27.98;12.00;;;;;;;3.59;100.00;99685.88;5012894;28;20060;-80
2024/02/08 09:22:24;;;;;;;19.73;10.80;;;;;;;3.61;100.00;99681.41;5012902;28;20045;-80
2024/02/08 09:24:50;;;;;;;20.15;10.23;;;;;;;3.60;100.00;99674.69;5027864;28;20029;-80
2024/02/08 09:27:16;;;;;;;21.70;10.38;;;;;;;3.62;100.00;99669.44;5029245;28;20068;-80
2024/02/08 09:29:56;;;;;;;18.67;8.77;;;;;;;3.67;100.00;99669.78;5027699;28;20029;-80
2024/02/08 09:35:11;;;;;;;17.60;9.45;;;;;;;3.63;100.00;99663.34;5021349;28;21040;-82
2024/02/08 09:37:47;;;;;;;22.10;10.27;;;;;;;3.72;100.00;99659.13;5003944;28;20041;-81
2024/02/08 09:42:57;;;;;;;19.50;9.75;;;;;;;3.75;100.00;99639.16;5021938;28;20117;-79
2024/02/08 09:48:06;;;;;;;20.30;9.48;;;;;;;3.60;100.00;99636.22;5025422;28;20483;-81
2024/02/08 09:50:36;;;;;;;19.83;8.98;;;;;;;3.69;100.00;99632.84;5022393;28;20045;-81
2024/02/08 09:53:19;;;;;;;20.92;9.32;;;;;;;3.62;100.00;99629.19;5012699;28;20117;-82
2024/02/08 09:55:55;;;;;;;22.17;9.50;;;;;;;3.65;100.00;99622.97;5008479;28;20085;-82
2024/02/08 09:58:38;;;;;;;18.38;9.75;;;;;;;3.67;100.00;99627.03;4989998;28;20081;-81
2024/02/08 10:01:30;;;;;;;;;;;;;;;3.73;100.00;99617.16;5017287;28;20045;-81
2024/02/08 10:04:05;;;;;;;21.73;8.88;;;;;;;3.72;100.00;99608.66;5029112;28;19916;-82
2024/02/08 10:12:06;;;;;;;22.67;9.77;;;;;;;3.66;100.00;99604.09;5022850;28;20037;-81
2024/02/08 10:14:36;;;;;;;25.38;11.50;;;;;;;3.72;100.00;99590.72;5028341;28;20029;-81
2024/02/08 10:17:17;;;;;;;27.98;11.88;;;;;;;3.62;100.00;99583.06;5022877;28;20049;-80
2024/02/08 10:23:33;;;;;;;26.30;11.35;;;;;;;3.68;100.00;99600.44;5020164;28;20100;-82
2024/02/08 10:28:22;;;;;;;26.38;12.68;;;;;;;3.67;100.00;99575.75;5026349;28;20040;-83
2024/02/08 10:31:05;;;;;;;24.20;11.25;;;;;;;3.66;100.00;99565.66;5009609;28;20705;-82
2024/02/08 10:33:37;;;;;;;25.27;11.70;;;;;;;3.67;100.00;99554.41;5011845;28;20029;-82
2024/02/08 10:36:15;;;;;;;32.50;13.57;;;;;;;3.79;100.00;99555.06;5011212;28;20129;-83
2024/02/08 10:38:56;;;;;;;26.73;12.15;;;;;;;3.89;100.00;99548.91;5018663;28;20040;-82
2024/02/08 10:41:57;;;;;;;26.05;12.27;;;;;;;3.84;100.00;99550.28;5028116;28;20061;-83
2024/02/08 10:44:24;;;;;;;30.58;12.48;;;;;;;3.87;100.00;99543.13;5026100;28;20199;-82
2024/02/08 10:47:06;;;;;;;23.63;10.85;;;;;;;3.87;100.00;99529.50;5013684;28;20579;-83
2024/02/08 10:49:41;;;;;;;24.02;11.27;;;;;;;3.90;100.00;99527.47;5006426;28;20038;-82
2024/02/08 10:52:12;;;;;;;28.80;12.63;;;;;;;3.96;100.00;99520.16;5022356;28;20038;-82
2024/02/08 10:54:42;;;;;;;26.25;11.80;;;;;;;3.85;100.00;99523.72;5030303;28;20041;-83
2024/02/08 10:57:33;;;;;;;22.92;11.25;;;;;;;3.82;100.00;99514.53;5011629;28;20026;-82
2024/02/08 10:59:58;;;;;;;23.60;11.85;;;;;;;3.97;100.00;99509.72;5025844;28;20033;-82
2024/02/08 11:02:48;;;;;;;27.50;12.35;;;;;;;3.96;100.00;99500.44;5025685;28;20040;-83
2024/02/08 11:05:34;;;;;;;26.45;10.55;;;;;;;3.85;100.00;99495.50;5022726;28;20026;-83
2024/02/08 11:08:00;;;;;;;22.85;11.20;;;;;;;3.88;100.00;99495.19;5009748;28;20064;-83
2024/02/08 11:10:32;;;;;;;31.70;13.00;;;;;;;3.86;100.00;99479.97;5014616;28;20050;-83
2024/02/08 11:13:11;;;;;;;28.00;11.13;;;;;;;3.86;100.00;99481.72;5009948;28;20043;-83
2024/02/08 11:15:48;;;;;;;28.10;12.57;;;;;;;3.95;100.00;99468.03;4989851;28;20128;-83
2024/02/08 11:18:37;;;;;;;23.67;12.30;;;;;;;3.82;100.00;99459.88;5028504;28;20029;-84
2024/02/08 11:21:04;;;;;;;27.48;12.70;;;;;;;3.89;100.00;99458.34;5006952;28;20037;-84
2024/02/08 11:27:57;;;;;;;28.95;11.05;;;;;;;3.82;100.00;99454.75;4963640;28;20063;-83
2024/02/08 11:31:12;;;;;;;23.80;11.63;;;;;;;3.93;100.00;99453.75;4969405;28;20035;-83
2024/02/08 11:33:46;;;;;;;22.58;11.52;;;;;;;3.94;100.00;99442.50;5025769;28;20034;-82
2024/02/08 11:36:13;;;;;;;23.58;11.85;;;;;;;3.87;100.00;99442.31;5018636;28;20044;-83
2024/02/08 11:39:26;;;;;;;23.45;11.88;;;;;;;3.99;100.00;99436.00;5028512;28;20091;-83
2024/02/08 11:41:52;;;;;;;25.10;11.85;;;;;;;3.95;100.00;99455.19;5029988;28;20094;-83
2024/02/08 11:44:24;;;;;;;31.50;15.80;;;;;;;4.08;100.00;99431.75;5026205;28;20083;-83
2024/02/08 11:46:51;;;;;;;;;;;;;;;4.01;100.00;99431.56;5019717;28;20096;-83
2024/02/08 11:49:31;;;;;;;23.30;11.15;;;;;;;3.94;100.00;99445.91;5027177;28;20343;-82
2024/02/08 11:51:58;;;;;;;22.83;11.77;;;;;;;4.18;100.00;99431.66;5008338;28;20499;-83
2024/02/08 11:54:30;;;;;;;16.98;9.30;;;;;;;4.19;100.00;99380.22;5018653;28;20037;-83
2024/02/08 11:57:03;;;;;;;18.13;9.77;;;;;;;4.13;100.00;99396.19;5007697;28;20048;-83
2024/02/08 11:59:29;;;;;;;21.60;12.23;;;;;;;4.22;100.00;99427.84;5015469;28;20064;-83
2024/02/08 12:02:08;;;;;;;20.83;12.10;;;;;;;4.27;100.00;99408.47;5020939;28;20101;-82
2024/02/08 12:04:38;;;;;;;18.38;9.57;;;;;;;4.26;100.00;99385.56;5024749;28;20025;-82
2024/02/08 12:07:07;;;;;;;17.67;8.82;;;;;;;4.26;100.00;99390.69;5020886;28;20030;-83
2024/02/08 12:09:33;;;;;;;19.40;10.25;;;;;;;4.28;100.00;99393.91;5022515;28;20033;-82
2024/02/08 12:12:00;;;;;;;18.73;9.85;;;;;;;4.33;100.00;99389.13;5026607;28;20056;-80
2024/02/08 12:14:26;;;;;;;15.20;9.02;;;;;;;4.19;100.00;99393.03;5009111;28;20072;-82
2024/02/08 12:16:57;;;;;;;21.98;11.20;;;;;;;4.17;100.00;99383.88;5023425;28;20072;-82
2024/02/08 12:19:24;;;;;;;17.83;10.02;;;;;;;4.17;100.00;99383.88;5027481;28;20038;-81
2024/02/08 12:21:57;;;;;;;17.90;9.93;;;;;;;4.20;100.00;99376.69;5023469;28;20053;-81
2024/02/08 12:24:23;;;;;;;;;;;;;;;4.32;100.00;99359.28;5025111;28;20120;-81
2024/02/08 12:26:53;;;;;;;19.17;9.57;;;;;;;4.37;100.00;99357.09;5012092;28;20031;-81
2024/02/08 12:29:24;;;;;;;17.98;9.80;;;;;;;4.29;100.00;99367.28;5009733;28;20037;-79
2024/02/08 12:31:54;;;;;;;19.42;10.10;;;;;;;4.38;100.00;99338.16;5026772;28;20050;-80
2024/02/08 12:34:31;;;;;;;16.48;9.00;;;;;;;4.46;100.00;99334.81;5009167;28;20033;-80
2024/02/08 12:37:05;;;;;;;16.48;9.77;;;;;;;4.41;100.00;99335.28;5024742;28;20500;-81
2024/02/08 12:39:44;;;;;;;15.38;9.57;;;;;;;4.45;100.00;99326.31;5015867;28;20546;-81
2024/02/08 12:42:13;;;;;;;16.27;8.43;;;;;;;4.51;100.00;99327.47;5007945;28;20033;-82
2024/02/08 12:44:39;;;;;;;16.65;9.10;;;;;;;4.55;100.00;99318.50;5010186;28;20044;-81
2024/02/08 12:47:09;;;;;;;15.43;9.25;;;;;;;4.58;100.00;99310.50;5027342;28;20038;-81
2024/02/08 12:49:35;;;;;;;15.50;8.52;;;;;;;4.56;100.00;99314.16;5005234;28;20026;-81
2024/02/08 12:52:09;;;;;;;15.05;8.38;;;;;;;4.64;100.00;99306.53;5015061;28;20029;-80
2024/02/08 12:54:36;;;;;;;15.10;8.10;;;;;;;4.59;100.00;99299.25;5013301;28;20033;-82
2024/02/08 13:00:58;;;;;;;18.27;8.38;;;;;;;4.56;100.00;99273.91;5025384;28;20049;-82
2024/02/08 13:03:26;;;;;;;14.93;7.47;;;;;;;4.56;100.00;99262.81;5010851;28;20132;-83
2024/02/08 13:05:51;;;;;;;17.75;7.68;;;;;;;4.58;100.00;99264.28;5031651;28;20029;-83
2024/02/08 13:08:21;;;;;;;16.58;8.05;;;;;;;4.58;100.00;99260.94;5030080;28;20029;-83
2024/02/08 13:10:54;;;;;;;14.82;8.30;;;;;;;4.63;100.00;99259.50;5007647;28;20037;-83
2024/02/08 13:13:23;;;;;;;15.68;7.88;;;;;;;4.58;100.00;99263.50;5029075;28;20101;-82
2024/02/08 13:15:58;;;;;;;14.18;7.43;;;;;;;4.63;100.00;99258.69;5016075;28;20424;-82
2024/02/08 13:18:34;;;;;;;16.13;7.70;;;;;;;4.62;100.00;99257.88;5015557;28;20033;-83
2024/02/08 13:21:03;;;;;;;16.70;7.60;;;;;;;4.66;100.00;99255.81;5023476;28;20041;-82
2024/02/08 13:23:30;;;;;;;14.90;7.75;;;;;;;4.58;100.00;99253.22;5012959;28;20033;-83
2024/02/08 13:29:44;;;;;;;15.27;7.63;;;;;;;4.70;100.00;99241.69;5026454;28;20412;-83
2024/02/08 13:40:26;;;;;;;18.95;7.45;;;;;;;4.57;100.00;99236.19;5030975;28;20099;-84
2024/02/08 13:51:11;;;;;;;19.45;9.10;;;;;;;4.65;100.00;99215.69;4949737;28;20095;-83
2024/02/08 13:53:41;;;;;;;17.13;9.70;;;;;;;4.65;100.00;99218.25;4965782;28;20503;-81
2024/02/08 13:56:11;;;;;;;19.67;10.25;;;;;;;4.74;100.00;99204.47;4993945;28;20030;-82
2024/02/08 13:58:37;;;;;;;18.58;10.13;;;;;;;4.69;100.00;99199.03;4985955;28;20021;-82
2024/02/08 14:01:04;;;;;;;14.30;8.52;;;;;;;4.67;100.00;99193.22;4992237;28;20571;-83
2024/02/08 14:03:29;;;;;;;17.35;8.57;;;;;;;4.67;100.00;99195.78;5008473;28;20068;-82
2024/02/08 14:05:55;;;;;;;16.85;9.93;;;;;;;4.67;100.00;99196.59;5001290;28;20404;-82
2024/02/08 14:08:23;;;;;;;14.02;8.60;;;;;;;4.66;100.00;99183.91;5010313;28;20033;-82
2024/02/08 14:10:49;;;;;;;16.50;9.05;;;;;;;4.66;100.00;99173.66;4995640;28;20087;-82